Mae Sariang, Thailand
Current Conditions -  °F | °C
As of 3:30 PM on Saturday 29 Nov 2014 (Local Time) from VTCC Reporting Station
Few Clouds Few Clouds  
Wind Chill: 88°   Ceiling: Unl
Heat Index: 88°   Visibility: 6mi
Dew Point: 52°   Wind: 3mph
Humidity: 29%   Direction: 110°ESE
Pressure: 29.83"   Gusts: NA
Location:  18.15°N, 97.93°E
Report Text: VTCC 290830Z 11003KT 9999 FEW040 31/11 Q1010 A2984 NOSIG
Loading
Personal Weather Stations






























Interactive Weather Map New forecast layout! Learn more

10-Day Weather Forecast

Advertisements
Track Severe Weather on mobile